Ray, Michigan
Current Conditions -  °F | °C
As of 12:55 PM on Monday 24 Nov 2014 (Local Time) from KMTC Reporting Station
Broken Clouds Broken Clouds  
Wind Chill: 58°   Ceiling: 3000
Heat Index: 58°   Visibility: 7mi
Dew Point: 53°   Wind: 26mph
Humidity: 84%   Direction: 220°SW
Pressure: 29.09"   Gusts: 39mph
Location:  42.76°N, 82.92°W
Report Text: KMTC 241755Z 22023G34KT 7SM SCT020 BKN030 BKN050 14/12 A2909 RMK SLP860 60008 T01430117 10144 20117 57003
Loading
Personal Weather Stations






























Interactive Weather Map New forecast layout! Learn more

10-Day Weather Forecast

Advertisements
Track Severe Weather on mobile